Time;durP1;ratioP1;P1;durP2;ratioP2;P2;SDS_P1;SDS_P2;PMS_P1;PMS_P2;Temp;Humidity;BMP_temperature;BMP_pressure;BME280_temperature;BME280_humidity;BME280_pressure;Samples;Min_cycle;Max_cycle;Signal;HPM_P1;HPM_P2
2021/08/04 00:02:00;;;;;;;;;;;15.60;99.90;;;;;;5133295;27;20304;-88
2021/08/04 00:04:26;;;;;;;;;;;15.60;99.90;;;;;;5124476;27;19956;-87
2021/08/04 00:06:52;;;;;;;;;;;15.60;99.90;;;;;;5161038;27;19923;-87
2021/08/04 00:09:18;;;;;;;;;;;15.60;99.90;;;;;;5137180;27;20412;-87
2021/08/04 00:11:43;;;;;;;;;;;15.60;99.90;;;;;;5160706;27;19923;-87
2021/08/04 00:14:09;;;;;;;;;;;15.60;99.90;;;;;;5135470;27;20380;-87
2021/08/04 00:16:35;;;;;;;;;;;15.70;99.90;;;;;;5163856;27;20293;-87
2021/08/04 00:19:00;;;;;;;;;;;15.70;99.90;;;;;;5150784;27;19968;-87
2021/08/04 00:21:26;;;;;;;;;;;15.60;99.90;;;;;;5162623;27;19967;-87
2021/08/04 00:23:52;;;;;;;;;;;15.60;99.90;;;;;;5151611;27;20021;-87
2021/08/04 00:26:18;;;;;;;;;;;15.60;99.90;;;;;;5139380;27;20559;-86
2021/08/04 00:28:43;;;;;;;;;;;15.70;99.90;;;;;;5134694;27;19946;-88
2021/08/04 00:31:09;;;;;;;;;;;15.70;99.90;;;;;;5162592;27;19933;-87
2021/08/04 00:33:35;;;;;;;;;;;15.70;99.90;;;;;;5149508;27;20021;-87
2021/08/04 00:36:00;;;;;;;;;;;15.70;99.90;;;;;;5158135;27;19923;-87
2021/08/04 00:38:27;;;;;;;;;;;15.70;99.90;;;;;;5138252;27;19934;-87
2021/08/04 00:40:52;;;;;;;;;;;15.70;99.90;;;;;;5113938;27;19919;-86
2021/08/04 00:43:18;;;;;;;;;;;15.70;99.90;;;;;;5149432;27;20012;-87
2021/08/04 00:45:44;;;;;;;;;;;15.70;99.90;;;;;;5142598;27;19923;-87
2021/08/04 00:48:10;;;;;;;;;;;15.70;99.90;;;;;;5153659;27;19973;-87
2021/08/04 00:50:47;;;;;;;;;;;15.70;99.90;;;;;;5160542;27;19926;-87
2021/08/04 00:53:24;;;;;;;;;;;15.70;99.90;;;;;;5143536;27;19922;-87
2021/08/04 00:55:50;;;;;;;;;;;15.70;99.90;;;;;;5156546;27;21699;-87
2021/08/04 00:58:16;;;;;;;;;;;15.70;99.90;;;;;;5155134;27;19919;-87
2021/08/04 01:00:47;;;;;;;;;;;15.70;99.90;;;;;;5134700;27;19926;-86
2021/08/04 01:03:17;;;;;;;;;;;15.70;99.90;;;;;;5146374;27;19926;-86
2021/08/04 01:05:54;;;;;;;;;;;15.80;99.90;;;;;;5127237;27;19923;-87
2021/08/04 01:08:40;;;;;;;;;;;15.80;99.90;;;;;;5128037;27;20013;-87
2021/08/04 01:11:08;;;;;;;;;;;15.70;99.90;;;;;;5128386;27;20721;-87
2021/08/04 01:13:40;;;;;;;;;;;15.70;99.90;;;;;;5146719;27;19930;-87
2021/08/04 01:16:10;;;;;;;;;;;15.70;99.90;;;;;;5146563;27;19953;-86
2021/08/04 01:19:02;;;;;;;;;;;15.70;99.90;;;;;;5146653;27;19926;-87
2021/08/04 01:21:39;;;;;;;;;;;15.70;99.90;;;;;;5089317;27;19919;-87
2021/08/04 01:24:15;;;;;;;;;;;15.70;99.90;;;;;;5128337;27;19996;-87
2021/08/04 01:26:42;;;;;;;;;;;15.70;99.90;;;;;;5146493;27;19973;-87
2021/08/04 01:29:08;;;;;;;;;;;15.70;99.90;;;;;;5146857;27;19964;-86
2021/08/04 01:31:34;;;;;;;;;;;15.70;99.90;;;;;;5147094;27;20301;-87
2021/08/04 01:34:01;;;;;;;;;;;15.70;99.90;;;;;;5146807;27;20374;-86
2021/08/04 01:36:27;;;;;;;;;;;15.70;99.90;;;;;;5146153;27;19930;-87
2021/08/04 01:38:53;;;;;;;;;;;15.70;99.90;;;;;;5146916;27;19927;-87
2021/08/04 01:41:20;;;;;;;;;;;15.70;99.90;;;;;;5128149;27;20290;-87
2021/08/04 01:43:47;;;;;;;;;;;15.70;99.90;;;;;;5146532;27;19919;-87
2021/08/04 01:46:13;;;;;;;;;;;15.70;99.90;;;;;;5128198;27;19923;-87
2021/08/04 01:48:40;;;;;;;;;;;15.70;99.90;;;;;;5159842;27;20296;-87
2021/08/04 01:51:08;;;;;;;;;;;15.70;99.90;;;;;;5132012;27;20187;-87
2021/08/04 01:53:34;;;;;;;;;;;15.70;99.90;;;;;;5148214;27;19930;-87
2021/08/04 01:55:59;;;;;;;;;;;15.70;99.90;;;;;;5164644;27;19981;-88
2021/08/04 01:58:25;;;;;;;;;;;15.70;99.90;;;;;;5146517;27;19970;-87
2021/08/04 02:00:51;;;;;;;;;;;15.70;99.90;;;;;;5127834;27;20270;-87
2021/08/04 02:03:17;;;;;;;;;;;15.70;99.90;;;;;;5157880;27;19968;-87
2021/08/04 02:05:44;;;;;;;;;;;15.70;99.90;;;;;;5113096;27;19930;-87
2021/08/04 02:08:16;;;;;;;;;;;15.70;99.90;;;;;;5136822;27;19922;-87
2021/08/04 02:10:47;;;;;;;;;;;15.70;99.90;;;;;;5167332;27;19926;-87
2021/08/04 02:13:26;;;;;;;;;;;15.70;99.90;;;;;;5151525;27;19923;-87
2021/08/04 02:15:54;;;;;;;;;;;15.60;99.90;;;;;;5152475;27;20021;-87
2021/08/04 02:18:21;;;;;;;;;;;15.60;99.90;;;;;;5152076;27;19919;-87
2021/08/04 02:20:49;;;;;;;;;;;15.60;99.90;;;;;;5155682;27;19941;-87
2021/08/04 02:23:20;;;;;;;;;;;15.60;99.90;;;;;;5149696;27;19922;-87
2021/08/04 02:25:50;;;;;;;;;;;15.70;99.90;;;;;;5150329;27;19919;-87
2021/08/04 02:28:19;;;;;;;;;;;15.60;99.90;;;;;;5149920;27;20019;-87
2021/08/04 02:30:46;;;;;;;;;;;15.60;99.90;;;;;;5131519;27;20013;-87
2021/08/04 02:33:12;;;;;;;;;;;15.60;99.90;;;;;;5149779;27;19951;-87
2021/08/04 02:35:37;;;;;;;;;;;15.60;99.90;;;;;;5149995;27;20099;-87
2021/08/04 02:38:03;;;;;;;;;;;15.60;99.90;;;;;;5149870;27;19948;-87
2021/08/04 02:40:29;;;;;;;;;;;15.60;99.90;;;;;;5130632;27;19934;-87
2021/08/04 02:42:55;;;;;;;;;;;15.60;99.90;;;;;;5126510;27;19919;-87
2021/08/04 02:45:21;;;;;;;;;;;15.60;99.90;;;;;;5131099;27;20279;-87
2021/08/04 02:47:47;;;;;;;;;;;15.60;99.90;;;;;;5149947;27;19923;-87
2021/08/04 02:50:13;;;;;;;;;;;15.60;99.90;;;;;;5148668;27;20394;-87
2021/08/04 02:52:40;;;;;;;;;;;15.60;99.90;;;;;;5163317;27;19937;-87
2021/08/04 02:55:06;;;;;;;;;;;15.60;99.90;;;;;;5170269;27;19945;-87
2021/08/04 02:57:31;;;;;;;;;;;15.60;99.90;;;;;;5166312;27;19930;-87
2021/08/04 02:59:57;;;;;;;;;;;15.60;99.90;;;;;;5149126;27;19923;-87
2021/08/04 03:02:23;;;;;;;;;;;15.60;99.90;;;;;;5131008;27;19919;-87
2021/08/04 03:04:48;;;;;;;;;;;15.60;99.90;;;;;;5170165;27;20385;-87
2021/08/04 03:07:14;;;;;;;;;;;15.60;99.90;;;;;;5151441;27;19983;-86
2021/08/04 03:09:40;;;;;;;;;;;15.60;99.90;;;;;;5150697;27;19927;-87
2021/08/04 03:12:06;;;;;;;;;;;15.60;99.90;;;;;;5151417;27;20352;-87
2021/08/04 03:14:31;;;;;;;;;;;15.60;99.90;;;;;;5170343;27;20438;-87
2021/08/04 03:16:57;;;;;;;;;;;15.60;99.90;;;;;;5170036;27;19926;-87
2021/08/04 03:19:23;;;;;;;;;;;15.50;99.90;;;;;;5147724;27;20029;-87
2021/08/04 03:21:48;;;;;;;;;;;15.60;99.90;;;;;;5116112;27;19923;-87
2021/08/04 03:24:14;;;;;;;;;;;15.50;99.90;;;;;;5129122;27;20431;-87
2021/08/04 03:26:40;;;;;;;;;;;15.60;99.90;;;;;;5130464;27;19919;-87
2021/08/04 03:29:06;;;;;;;;;;;15.50;99.90;;;;;;5130842;27;19923;-87
2021/08/04 03:31:31;;;;;;;;;;;15.50;99.90;;;;;;5148042;27;20468;-87
2021/08/04 03:33:57;;;;;;;;;;;15.50;99.90;;;;;;5130123;27;19944;-87
2021/08/04 03:36:23;;;;;;;;;;;15.50;99.90;;;;;;5129940;27;19923;-87
2021/08/04 03:38:49;;;;;;;;;;;15.40;99.90;;;;;;5148339;27;19923;-85
2021/08/04 03:41:15;;;;;;;;;;;15.40;99.90;;;;;;5148124;27;19927;-87
2021/08/04 03:43:41;;;;;;;;;;;15.40;99.90;;;;;;5148385;27;19927;-87
2021/08/04 03:46:06;;;;;;;;;;;15.30;99.90;;;;;;5130348;27;20042;-87
2021/08/04 03:48:32;;;;;;;;;;;15.30;99.90;;;;;;5148228;27;19959;-87
2021/08/04 03:50:58;;;;;;;;;;;15.30;99.90;;;;;;5129436;27;19972;-87
2021/08/04 03:53:23;;;;;;;;;;;15.30;99.90;;;;;;5168860;27;20172;-87
2021/08/04 03:55:49;;;;;;;;;;;15.20;99.90;;;;;;5150320;27;19925;-87
2021/08/04 03:58:15;;;;;;;;;;;15.20;99.90;;;;;;5151014;27;20293;-86
2021/08/04 04:00:42;;;;;;;;;;;15.20;99.90;;;;;;5169225;27;19975;-87
2021/08/04 04:03:08;;;;;;;;;;;15.20;99.90;;;;;;5143094;27;19926;-87
2021/08/04 04:05:34;;;;;;;;;;;15.20;99.90;;;;;;5148126;27;20438;-87
2021/08/04 04:07:59;;;;;;;;;;;15.20;99.90;;;;;;5148111;27;20289;-87
2021/08/04 04:10:25;;;;;;;;;;;15.20;99.90;;;;;;5147857;27;19919;-87
2021/08/04 04:12:51;;;;;;;;;;;15.20;99.90;;;;;;5147446;27;20466;-87
2021/08/04 04:15:17;;;;;;;;;;;15.30;99.90;;;;;;5148053;27;20034;-87
2021/08/04 04:17:42;;;;;;;;;;;15.30;99.90;;;;;;5114649;27;19946;-87
2021/08/04 04:20:08;;;;;;;;;;;15.30;99.90;;;;;;5129528;27;20242;-87
2021/08/04 04:22:34;;;;;;;;;;;15.30;99.90;;;;;;5146974;27;20407;-87
2021/08/04 04:25:00;;;;;;;;;;;15.30;99.90;;;;;;5129415;27;19919;-87
2021/08/04 04:27:26;;;;;;;;;;;15.30;99.90;;;;;;5147490;27;19962;-87
2021/08/04 04:29:51;;;;;;;;;;;15.30;99.90;;;;;;5147804;27;19918;-86
2021/08/04 04:32:17;;;;;;;;;;;15.20;99.90;;;;;;5128290;27;20003;-87
2021/08/04 04:34:43;;;;;;;;;;;15.20;99.90;;;;;;5146917;27;20374;-87
2021/08/04 04:37:08;;;;;;;;;;;15.20;99.90;;;;;;5128985;27;20357;-87
2021/08/04 04:39:34;;;;;;;;;;;15.20;99.90;;;;;;5147473;27;19923;-87
2021/08/04 04:42:00;;;;;;;;;;;15.20;99.90;;;;;;5128679;27;19929;-87
2021/08/04 04:44:26;;;;;;;;;;;15.30;99.90;;;;;;5128552;27;20369;-87
2021/08/04 04:46:52;;;;;;;;;;;15.30;99.90;;;;;;5147149;27;19944;-87
2021/08/04 04:49:20;;;;;;;;;;;15.30;99.90;;;;;;5147343;27;19964;-87
2021/08/04 04:51:45;;;;;;;;;;;15.20;99.90;;;;;;5153980;27;20377;-87
2021/08/04 04:54:11;;;;;;;;;;;15.30;99.90;;;;;;5148661;27;19926;-86
2021/08/04 04:56:37;;;;;;;;;;;15.30;99.90;;;;;;5167664;27;19923;-87
2021/08/04 04:59:02;;;;;;;;;;;15.30;99.90;;;;;;5149642;27;19971;-87
2021/08/04 05:01:31;;;;;;;;;;;15.30;99.90;;;;;;5117561;27;19964;-87
2021/08/04 05:03:57;;;;;;;;;;;15.40;99.90;;;;;;5134962;27;19931;-87
2021/08/04 05:06:23;;;;;;;;;;;15.40;99.90;;;;;;5147149;27;19923;-87
2021/08/04 05:08:49;;;;;;;;;;;15.40;99.90;;;;;;5123476;27;20162;-87
2021/08/04 05:11:15;;;;;;;;;;;15.50;99.90;;;;;;5127953;27;19945;-87
2021/08/04 05:13:40;;;;;;;;;;;15.50;99.90;;;;;;5146527;27;20472;-87
2021/08/04 05:16:06;;;;;;;;;;;15.50;99.90;;;;;;5128297;27;19922;-87
2021/08/04 05:18:32;;;;;;;;;;;15.50;99.90;;;;;;5128134;27;19923;-86
2021/08/04 05:20:58;;;;;;;;;;;15.50;99.90;;;;;;5128633;27;19922;-87
2021/08/04 05:23:24;;;;;;;;;;;15.50;99.90;;;;;;5127432;27;19968;-87
2021/08/04 05:25:49;;;;;;;;;;;15.50;99.90;;;;;;5127665;27;19930;-87
2021/08/04 05:28:15;;;;;;;;;;;15.50;99.90;;;;;;5128150;27;19920;-87
2021/08/04 05:30:41;;;;;;;;;;;15.50;99.90;;;;;;5146863;27;19922;-87
2021/08/04 05:33:07;;;;;;;;;;;15.50;99.90;;;;;;5146647;27;20442;-87
2021/08/04 05:35:32;;;;;;;;;;;15.50;99.90;;;;;;5145758;27;20015;-87
2021/08/04 05:37:58;;;;;;;;;;;15.60;99.90;;;;;;5128143;27;19980;-87
2021/08/04 05:40:23;;;;;;;;;;;15.60;99.90;;;;;;5128120;27;19919;-87
2021/08/04 05:42:50;;;;;;;;;;;15.60;99.90;;;;;;5146567;27;19927;-87
2021/08/04 05:45:15;;;;;;;;;;;15.60;99.90;;;;;;5127513;27;20025;-87
2021/08/04 05:47:41;;;;;;;;;;;15.60;99.90;;;;;;5149032;27;19925;-87
2021/08/04 05:50:07;;;;;;;;;;;15.70;99.90;;;;;;5151131;27;19923;-87
2021/08/04 05:52:33;;;;;;;;;;;15.70;99.90;;;;;;5132405;27;20360;-87
2021/08/04 05:54:59;;;;;;;;;;;15.70;99.90;;;;;;5131404;27;19927;-87
2021/08/04 05:57:24;;;;;;;;;;;15.70;99.90;;;;;;5150591;27;20025;-87
2021/08/04 05:59:50;;;;;;;;;;;15.70;99.90;;;;;;5151083;27;19919;-87
2021/08/04 06:02:16;;;;;;;;;;;15.80;99.90;;;;;;5132304;27;19923;-87
2021/08/04 06:04:41;;;;;;;;;;;15.80;99.90;;;;;;5171167;27;19947;-87
2021/08/04 06:07:07;;;;;;;;;;;15.80;99.90;;;;;;5152078;27;20222;-87
2021/08/04 06:09:33;;;;;;;;;;;15.80;99.90;;;;;;5152866;27;19918;-87
2021/08/04 06:11:59;;;;;;;;;;;15.80;99.90;;;;;;5152304;27;20389;-87
2021/08/04 06:14:24;;;;;;;;;;;15.80;99.90;;;;;;5171388;27;20369;-87
2021/08/04 06:16:50;;;;;;;;;;;15.80;99.90;;;;;;5170436;27;19978;-87
2021/08/04 06:19:16;;;;;;;;;;;15.80;99.90;;;;;;5152606;27;19930;-87
2021/08/04 06:21:41;;;;;;;;;;;15.80;99.90;;;;;;5152100;27;19970;-87
2021/08/04 06:24:07;;;;;;;;;;;15.80;99.90;;;;;;5171190;27;19923;-87
2021/08/04 06:26:33;;;;;;;;;;;15.80;99.90;;;;;;5121679;27;19926;-87
2021/08/04 06:29:00;;;;;;;;;;;15.80;99.90;;;;;;5150047;27;20385;-87
2021/08/04 06:31:26;;;;;;;;;;;15.80;99.90;;;;;;5131330;27;19923;-87
2021/08/04 06:33:51;;;;;;;;;;;15.80;99.90;;;;;;5130732;27;19931;-87
2021/08/04 06:36:17;;;;;;;;;;;15.90;99.90;;;;;;5152298;27;19973;-87
2021/08/04 06:38:43;;;;;;;;;;;15.90;99.90;;;;;;5151356;27;20369;-87
2021/08/04 06:41:08;;;;;;;;;;;15.90;99.90;;;;;;5170309;27;20270;-87
2021/08/04 06:43:42;;;;;;;;;;;15.90;99.90;;;;;;5151073;27;20397;-86
2021/08/04 06:46:09;;;;;;;;;;;15.90;99.90;;;;;;5150401;27;19978;-87
2021/08/04 06:48:34;;;;;;;;;;;16.00;99.90;;;;;;5169417;27;19919;-87
2021/08/04 06:51:00;;;;;;;;;;;16.00;99.90;;;;;;5169114;27;19926;-87
2021/08/04 06:53:26;;;;;;;;;;;16.00;99.90;;;;;;5148775;27;20466;-86
2021/08/04 06:55:51;;;;;;;;;;;16.00;99.90;;;;;;5116962;27;20393;-87
2021/08/04 06:58:17;;;;;;;;;;;16.10;99.90;;;;;;5140809;27;19931;-87
2021/08/04 07:00:43;;;;;;;;;;;16.20;99.90;;;;;;5120442;27;20135;-87
2021/08/04 07:03:08;;;;;;;;;;;16.20;99.90;;;;;;5156184;27;19922;-87
2021/08/04 07:05:34;;;;;;;;;;;16.20;99.90;;;;;;5170521;27;20325;-87
2021/08/04 07:08:00;;;;;;;;;;;16.30;99.90;;;;;;5151042;27;20344;-87
2021/08/04 07:10:25;;;;;;;;;;;16.30;99.90;;;;;;5151418;27;19919;-87
2021/08/04 07:12:51;;;;;;;;;;;16.40;99.90;;;;;;5169769;27;20416;-87
2021/08/04 07:15:17;;;;;;;;;;;16.40;99.90;;;;;;5151110;27;19922;-87
2021/08/04 07:17:43;;;;;;;;;;;16.50;99.90;;;;;;5169133;27;20448;-87
2021/08/04 07:20:09;;;;;;;;;;;16.60;99.90;;;;;;5141912;27;19930;-87
2021/08/04 07:22:35;;;;;;;;;;;16.60;99.90;;;;;;5148962;27;19919;-87
2021/08/04 07:25:00;;;;;;;;;;;16.70;99.90;;;;;;5148855;27;20392;-87
2021/08/04 07:27:26;;;;;;;;;;;16.70;99.90;;;;;;5148692;27;20505;-87
2021/08/04 07:29:52;;;;;;;;;;;16.70;99.90;;;;;;5130159;27;19929;-85
2021/08/04 07:32:17;;;;;;;;;;;16.80;99.90;;;;;;5148917;27;20520;-87
2021/08/04 07:34:43;;;;;;;;;;;16.80;99.90;;;;;;5130378;27;20013;-87
2021/08/04 07:37:09;;;;;;;;;;;16.80;99.90;;;;;;5130479;27;20433;-87
2021/08/04 07:39:34;;;;;;;;;;;16.80;99.90;;;;;;5129856;27;20378;-87
2021/08/04 07:42:00;;;;;;;;;;;16.80;99.90;;;;;;5130158;27;20346;-87
2021/08/04 07:44:26;;;;;;;;;;;16.90;99.90;;;;;;5148431;27;19927;-87
2021/08/04 07:46:52;;;;;;;;;;;16.80;99.90;;;;;;5130270;27;19929;-85
2021/08/04 07:49:18;;;;;;;;;;;16.80;99.90;;;;;;5148148;27;20289;-87
2021/08/04 07:51:44;;;;;;;;;;;16.90;99.90;;;;;;5155164;27;19922;-87
2021/08/04 07:54:09;;;;;;;;;;;16.90;99.90;;;;;;5147141;27;19923;-87
2021/08/04 07:56:35;;;;;;;;;;;16.90;99.90;;;;;;5148455;27;19926;-87
2021/08/04 07:59:02;;;;;;;;;;;17.00;99.90;;;;;;5146922;27;20336;-87
2021/08/04 08:01:29;;;;;;;;;;;17.00;99.90;;;;;;5126412;27;19931;-87
2021/08/04 08:03:55;;;;;;;;;;;17.00;99.90;;;;;;5139751;27;19950;-87
2021/08/04 08:06:20;;;;;;;;;;;17.10;99.90;;;;;;5146819;27;19969;-87
2021/08/04 08:08:46;;;;;;;;;;;17.10;99.90;;;;;;5148096;27;19969;-88
2021/08/04 08:11:12;;;;;;;;;;;17.10;99.90;;;;;;5109917;27;19934;-87
2021/08/04 08:13:37;;;;;;;;;;;17.10;99.90;;;;;;5127492;27;19935;-87
2021/08/04 08:16:03;;;;;;;;;;;17.10;99.90;;;;;;5127297;27;19923;-87
2021/08/04 08:18:29;;;;;;;;;;;17.10;99.90;;;;;;5125617;27;20157;-88
2021/08/04 08:20:55;;;;;;;;;;;17.10;99.90;;;;;;5126815;27;19957;-87
2021/08/04 08:23:20;;;;;;;;;;;17.20;99.90;;;;;;5127090;27;19924;-87
2021/08/04 08:25:46;;;;;;;;;;;17.20;99.90;;;;;;5127447;27;19915;-87
2021/08/04 08:28:12;;;;;;;;;;;17.20;99.90;;;;;;5137659;27;19976;-87
2021/08/04 08:30:37;;;;;;;;;;;17.20;99.90;;;;;;5145902;27;19923;-87
2021/08/04 08:33:03;;;;;;;;;;;17.20;99.90;;;;;;5147709;27;19923;-87
2021/08/04 08:35:30;;;;;;;;;;;17.30;99.90;;;;;;5146377;27;19929;-87
2021/08/04 08:37:56;;;;;;;;;;;17.30;99.90;;;;;;5147819;27;19971;-87
2021/08/04 08:40:21;;;;;;;;;;;17.30;99.90;;;;;;5146989;27;19935;-87
2021/08/04 08:42:47;;;;;;;;;;;17.40;99.90;;;;;;5146227;27;20018;-87
2021/08/04 08:45:13;;;;;;;;;;;17.40;99.90;;;;;;5146132;27;19927;-88
2021/08/04 08:47:40;;;;;;;;;;;17.50;99.90;;;;;;5147497;27;19930;-87
2021/08/04 08:50:06;;;;;;;;;;;17.50;99.90;;;;;;5147435;27;19919;-87
2021/08/04 08:52:32;;;;;;;;;;;17.50;99.90;;;;;;5131768;27;19972;-87
2021/08/04 08:55:02;;;;;;;;;;;17.60;99.90;;;;;;5121028;27;20429;-87
2021/08/04 08:57:28;;;;;;;;;;;17.60;99.90;;;;;;5126914;27;20077;-87
2021/08/04 08:59:57;;;;;;;;;;;17.60;99.90;;;;;;5127057;27;19923;-87
2021/08/04 09:02:27;;;;;;;;;;;17.60;99.90;;;;;;5124562;27;19947;-87
2021/08/04 09:05:22;;;;;;;;;;;17.70;99.90;;;;;;5147180;27;20313;-87
2021/08/04 09:07:48;;;;;;;;;;;17.70;99.90;;;;;;5133398;27;19927;-87
2021/08/04 09:10:30;;;;;;;;;;;17.80;99.90;;;;;;5145645;27;20370;-87
2021/08/04 09:12:59;;;;;;;;;;;17.80;99.90;;;;;;5126162;27;20448;-87
2021/08/04 09:15:35;;;;;;;;;;;17.80;99.90;;;;;;5126129;27;19923;-87
2021/08/04 09:18:06;;;;;;;;;;;17.80;99.90;;;;;;5126154;27;19985;-87
2021/08/04 09:20:40;;;;;;;;;;;17.90;99.90;;;;;;5124816;27;19948;-87
2021/08/04 09:23:09;;;;;;;;;;;17.90;99.90;;;;;;5123860;27;20010;-87
2021/08/04 09:25:35;;;;;;;;;;;17.90;99.90;;;;;;5125037;27;20382;-86
2021/08/04 09:28:01;;;;;;;;;;;17.90;99.90;;;;;;5124930;27;19924;-87
2021/08/04 09:30:29;;;;;;;;;;;17.90;99.90;;;;;;5124967;27;20393;-87
2021/08/04 09:33:10;;;;;;;;;;;18.00;99.90;;;;;;5123992;27;19938;-86
2021/08/04 09:35:40;;;;;;;;;;;18.00;99.90;;;;;;5126270;27;19919;-88
2021/08/04 09:38:06;;;;;;;;;;;18.00;99.90;;;;;;5126233;27;19942;-87
2021/08/04 09:40:32;;;;;;;;;;;18.10;99.90;;;;;;5124780;27;20397;-87
2021/08/04 09:42:58;;;;;;;;;;;18.10;99.90;;;;;;5124190;27;19927;-87
2021/08/04 09:45:36;;;;;;;;;;;18.10;99.90;;;;;;5124455;27;20302;-88
2021/08/04 09:48:09;;;;;;;;;;;18.10;99.90;;;;;;5125840;27;19974;-85
2021/08/04 09:50:53;;;;;;;;;;;18.20;99.90;;;;;;5125813;27;19923;-87
2021/08/04 09:53:21;;;;;;;;;;;18.20;99.90;;;;;;5129419;27;20282;-87
2021/08/04 09:56:05;;;;;;;;;;;18.20;99.90;;;;;;5146514;27;19920;-87
2021/08/04 09:58:31;;;;;;;;;;;18.30;99.90;;;;;;5146231;27;20600;-87
2021/08/04 10:00:59;;;;;;;;;;;18.30;99.90;;;;;;5128113;27;19923;-87
2021/08/04 10:03:25;;;;;;;;;;;18.40;99.90;;;;;;5154976;27;19919;-87
2021/08/04 10:05:50;;;;;;;;;;;18.40;99.90;;;;;;5163867;27;19926;-87
2021/08/04 10:08:16;;;;;;;;;;;18.50;99.90;;;;;;5128106;27;19919;-87
2021/08/04 10:10:43;;;;;;;;;;;18.50;99.90;;;;;;5127555;27;19923;-87
2021/08/04 10:13:10;;;;;;;;;;;18.50;99.90;;;;;;5145760;27;19999;-87
2021/08/04 10:15:43;;;;;;;;;;;18.50;99.90;;;;;;5127737;27;19915;-87
2021/08/04 10:18:13;;;;;;;;;;;18.60;99.90;;;;;;5127539;27;20296;-87
2021/08/04 10:20:39;;;;;;;;;;;18.60;99.90;;;;;;5146193;27;19975;-86
2021/08/04 10:23:06;;;;;;;;;;;18.70;99.90;;;;;;5146260;27;19979;-87
2021/08/04 10:25:32;;;;;;;;;;;18.70;99.90;;;;;;5111261;27;20062;-88
2021/08/04 10:28:00;;;;;;;;;;;18.70;99.90;;;;;;5146240;27;20636;-86
2021/08/04 10:30:26;;;;;;;;;;;18.80;99.90;;;;;;5128056;27;19923;-87
2021/08/04 10:32:52;;;;;;;;;;;18.80;99.90;;;;;;5146486;27;20059;-87
2021/08/04 10:35:18;;;;;;;;;;;18.90;99.90;;;;;;5149337;27;20013;-86
2021/08/04 10:37:44;;;;;;;;;;;18.90;99.90;;;;;;5131545;27;20420;-87
2021/08/04 10:40:10;;;;;;;;;;;18.80;99.90;;;;;;5149839;27;20370;-87
2021/08/04 10:42:37;;;;;;;;;;;18.80;99.90;;;;;;5149991;27;20018;-87
2021/08/04 10:45:27;;;;;;;;;;;18.80;99.90;;;;;;5130829;27;20317;-87
2021/08/04 10:47:54;;;;;;;;;;;18.80;99.90;;;;;;5131024;27;19998;-87
2021/08/04 10:50:20;;;;;;;;;;;18.80;99.90;;;;;;5149686;27;19971;-87
2021/08/04 10:52:58;;;;;;;;;;;18.90;99.90;;;;;;5164797;27;20468;-87
2021/08/04 10:55:24;;;;;;;;;;;18.90;99.90;;;;;;5169902;27;19929;-87
2021/08/04 10:58:16;;;;;;;;;;;18.90;99.90;;;;;;5163084;27;19923;-87
2021/08/04 11:00:42;;;;;;;;;;;19.00;99.90;;;;;;5144862;27;19923;-88
2021/08/04 11:03:27;;;;;;;;;;;19.10;99.90;;;;;;5130247;27;19967;-88
2021/08/04 11:06:02;;;;;;;;;;;19.20;99.90;;;;;;5148828;27;20010;-87
2021/08/04 11:08:28;;;;;;;;;;;19.30;99.90;;;;;;5149421;27;20401;-87
2021/08/04 11:10:53;;;;;;;;;;;19.50;99.90;;;;;;5149423;27;19919;-86
2021/08/04 11:13:38;;;;;;;;;;;19.70;99.90;;;;;;5149331;27;20377;-88
2021/08/04 11:16:22;;;;;;;;;;;19.80;99.90;;;;;;5130153;27;19923;-88
2021/08/04 11:19:08;;;;;;;;;;;19.90;99.90;;;;;;5130128;27;19958;-86
2021/08/04 11:21:35;;;;;;;;;;;20.00;99.90;;;;;;5149123;27;19930;-87
2021/08/04 11:24:01;;;;;;;;;;;20.00;99.90;;;;;;5149273;27;19971;-87
2021/08/04 11:26:31;;;;;;;;;;;20.00;99.90;;;;;;5148552;27;19919;-87
2021/08/04 11:28:57;;;;;;;;;;;20.00;99.90;;;;;;5149019;27;19923;-87
2021/08/04 11:31:23;;;;;;;;;;;20.00;99.90;;;;;;5130422;27;19930;-87
2021/08/04 11:33:49;;;;;;;;;;;19.90;99.90;;;;;;5130176;27;19923;-85
2021/08/04 11:36:16;;;;;;;;;;;19.90;99.90;;;;;;5148295;27;20417;-87
2021/08/04 11:38:54;;;;;;;;;;;19.80;99.90;;;;;;5130139;27;19919;-87
2021/08/04 11:41:26;;;;;;;;;;;19.80;99.90;;;;;;5148704;27;19952;-87
2021/08/04 11:43:58;;;;;;;;;;;19.70;99.90;;;;;;5148280;27;19983;-87
2021/08/04 11:46:31;;;;;;;;;;;19.80;99.90;;;;;;5147265;27;20468;-86
2021/08/04 11:48:58;;;;;;;;;;;19.80;99.90;;;;;;5148577;27;19934;-87
2021/08/04 11:51:38;;;;;;;;;;;19.80;99.90;;;;;;5132220;27;19971;-87
2021/08/04 11:54:04;;;;;;;;;;;19.70;99.90;;;;;;5160319;27;19923;-87
2021/08/04 11:56:30;;;;;;;;;;;19.70;99.90;;;;;;5147560;27;19982;-87
2021/08/04 11:59:00;;;;;;;;;;;19.60;99.90;;;;;;5148272;27;20370;-86
2021/08/04 12:01:26;;;;;;;;;;;19.60;99.90;;;;;;5130235;27;20021;-86
2021/08/04 12:04:08;;;;;;;;;;;19.60;99.90;;;;;;5129940;27;20520;-87
2021/08/04 12:06:37;;;;;;;;;;;19.70;99.90;;;;;;5147641;27;20406;-87
2021/08/04 12:09:15;;;;;;;;;;;19.70;99.90;;;;;;5147771;27;19923;-87
2021/08/04 12:11:41;;;;;;;;;;;19.70;99.90;;;;;;5148299;27;19927;-87
2021/08/04 12:14:07;;;;;;;;;;;19.70;99.90;;;;;;5148213;27;20683;-87
2021/08/04 12:16:40;;;;;;;;;;;19.70;99.90;;;;;;5142368;27;20005;-87
2021/08/04 12:19:06;;;;;;;;;;;19.80;99.90;;;;;;5168106;27;19919;-87
2021/08/04 12:21:31;;;;;;;;;;;19.90;99.90;;;;;;5168346;27;19919;-87
2021/08/04 12:23:58;;;;;;;;;;;20.00;99.90;;;;;;5168780;27;19922;-87
2021/08/04 12:26:23;;;;;;;;;;;20.00;99.90;;;;;;5149967;27;20458;-87
2021/08/04 12:28:49;;;;;;;;;;;20.10;99.90;;;;;;5149516;27;19935;-87
2021/08/04 12:31:14;;;;;;;;;;;20.10;99.90;;;;;;5149927;27;20437;-87
2021/08/04 12:33:56;;;;;;;;;;;20.10;99.90;;;;;;5127086;27;19927;-88
2021/08/04 12:36:34;;;;;;;;;;;20.20;99.90;;;;;;5131276;27;19966;-87
2021/08/04 12:39:00;;;;;;;;;;;20.20;99.90;;;;;;5145356;27;19919;-87
2021/08/04 12:41:28;;;;;;;;;;;20.20;99.90;;;;;;5111833;27;19919;-87
2021/08/04 12:43:56;;;;;;;;;;;20.10;99.90;;;;;;5147674;27;20289;-87
2021/08/04 12:46:26;;;;;;;;;;;20.10;99.90;;;;;;5119652;27;19975;-87
2021/08/04 12:48:53;;;;;;;;;;;20.10;99.90;;;;;;5146503;27;20022;-86
2021/08/04 12:51:22;;;;;;;;;;;20.10;99.90;;;;;;5131147;27;19922;-87
2021/08/04 12:53:58;;;;;;;;;;;20.10;99.90;;;;;;5149634;27;19930;-87
2021/08/04 12:56:30;;;;;;;;;;;20.00;99.90;;;;;;5149132;27;19925;-87
2021/08/04 12:58:57;;;;;;;;;;;20.00;99.90;;;;;;5167763;27;20425;-87
2021/08/04 13:01:26;;;;;;;;;;;20.00;99.90;;;;;;5149678;27;19970;-87
2021/08/04 13:03:52;;;;;;;;;;;20.00;99.90;;;;;;5154990;27;19919;-87
2021/08/04 13:06:19;;;;;;;;;;;20.00;99.90;;;;;;5128467;27;20455;-87
2021/08/04 13:08:45;;;;;;;;;;;20.00;99.90;;;;;;5161629;27;19925;-87
2021/08/04 13:11:23;;;;;;;;;;;20.20;99.90;;;;;;5148910;27;20156;-87
2021/08/04 13:14:00;;;;;;;;;;;20.30;99.90;;;;;;5167984;27;19927;-87
2021/08/04 13:16:32;;;;;;;;;;;20.40;99.90;;;;;;5149230;27;19918;-88
2021/08/04 13:18:58;;;;;;;;;;;20.40;99.90;;;;;;5167344;27;20389;-87
2021/08/04 13:21:24;;;;;;;;;;;20.40;99.90;;;;;;5148487;27;20126;-85
2021/08/04 13:23:49;;;;;;;;;;;20.50;99.90;;;;;;5167585;27;20034;-87
2021/08/04 13:26:18;;;;;;;;;;;20.50;99.90;;;;;;5121396;27;19927;-87
2021/08/04 13:28:44;;;;;;;;;;;20.50;99.90;;;;;;5128835;27;20026;-87
2021/08/04 13:31:16;;;;;;;;;;;20.60;99.90;;;;;;5147915;27;19923;-87
2021/08/04 13:33:43;;;;;;;;;;;20.60;99.90;;;;;;5149124;27;19926;-87
2021/08/04 13:36:09;;;;;;;;;;;20.50;99.90;;;;;;5122019;27;19930;-87
2021/08/04 13:38:35;;;;;;;;;;;20.50;99.90;;;;;;5146542;27;20037;-85
2021/08/04 13:41:00;;;;;;;;;;;20.50;99.90;;;;;;5127180;27;19919;-88
2021/08/04 13:43:27;;;;;;;;;;;20.50;99.90;;;;;;5128007;27;19922;-87
2021/08/04 13:45:52;;;;;;;;;;;20.60;99.90;;;;;;5135071;27;19930;-88
2021/08/04 13:48:18;;;;;;;;;;;20.60;99.90;;;;;;5167753;27;20347;-87
2021/08/04 13:50:45;;;;;;;;;;;20.60;99.90;;;;;;5166666;27;19923;-87
2021/08/04 13:53:10;;;;;;;;;;;20.70;99.90;;;;;;5147557;27;20337;-88
2021/08/04 13:55:37;;;;;;;;;;;20.70;99.90;;;;;;5146542;27;20021;-87
2021/08/04 13:58:03;;;;;;;;;;;20.60;99.90;;;;;;5128093;27;19950;-88
2021/08/04 14:00:29;;;;;;;;;;;20.60;99.90;;;;;;5146342;27;20357;-87
2021/08/04 14:02:55;;;;;;;;;;;20.50;99.90;;;;;;5151455;27;20037;-88
2021/08/04 14:05:21;;;;;;;;;;;20.40;99.90;;;;;;5167273;27;20429;-87
2021/08/04 14:07:47;;;;;;;;;;;20.40;99.90;;;;;;5167633;27;19926;-87
2021/08/04 14:10:14;;;;;;;;;;;20.50;99.90;;;;;;5152599;27;20326;-87
2021/08/04 14:12:40;;;;;;;;;;;20.60;99.90;;;;;;5170679;27;19927;-87
2021/08/04 14:15:07;;;;;;;;;;;20.60;99.90;;;;;;5152666;27;19930;-88
2021/08/04 14:17:33;;;;;;;;;;;20.70;99.90;;;;;;5152705;27;19944;-87
2021/08/04 14:19:59;;;;;;;;;;;20.70;99.90;;;;;;5171073;27;19923;-88